CheckWX is a tool to help pilots better visualize weather data.  It is not intended as a substitute for an official pre-flight weather briefing.

17:40:02 UTC

KSDF TAF
Louisville International-Standiford Field Airport
Louisville, Kentucky, USA
KSDF 111120Z 1112/1218 VRB05KT P6SM SKC FM111600 22009KT P6SM FEW060 FM112300 VRB04KT P6SM SKC FM120300 13003KT P6SM FEW250

Dec-11@
12:00 UTC

Dec-11 @ 12:00 UTC

Dec-11@
16:00 UTC

Dec-11 @ 16:00 UTC

KSDF 111120Z 1112/1218 VRB05KT P6SM SKC

Expired

Wind
  • Variable at 5 KTS
Cloud Levels
  • Clear skies

Dec-11@
16:00 UTC

Dec-11 @ 16:00 UTC

Dec-11@
23:00 UTC

Dec-11 @ 23:00 UTC

FM111600 22009KT P6SM FEW060

From

From Standard forecast or significant change

Wind
  • 220° at 9 KTS
Cloud Levels
  • Few at 6,000' AGL

Dec-11@
23:00 UTC

Dec-11 @ 23:00 UTC

Dec-12@
03:00 UTC

Dec-12 @ 03:00 UTC

FM112300 VRB04KT P6SM SKC

From

From Standard forecast or significant change

Wind
  • Variable at 4 KTS
Cloud Levels
  • Clear skies

Dec-12@
03:00 UTC

Dec-12 @ 03:00 UTC

Dec-12@
18:00 UTC

Dec-12 @ 18:00 UTC

FM120300 13003KT P6SM FEW250

From

From Standard forecast or significant change

Wind
  • 130° at 3 KTS
Cloud Levels
  • Few at 25,000' AGL